Time;durP1;ratioP1;P1;durP2;ratioP2;P2;SDS_P1;SDS_P2;PMS_P1;PMS_P2;Temp;Humidity;BMP_temperature;BMP_pressure;BME280_temperature;BME280_humidity;BME280_pressure;Samples;Min_cycle;Max_cycle;Signal;HPM_P1;HPM_P2
2023/12/21 00:02:04;;;;;;;4.43;3.60;;;7.10;99.90;;;;;;6308104;22;20179;-83
2023/12/21 00:04:32;;;;;;;5.20;3.97;;;7.10;99.90;;;;;;6307960;22;20156;-84
2023/12/21 00:06:58;;;;;;;5.40;3.30;;;7.10;99.90;;;;;;6307994;22;20159;-84
2023/12/21 00:09:23;;;;;;;3.30;2.93;;;7.10;99.90;;;;;;6307821;22;20155;-84
2023/12/21 00:11:49;;;;;;;4.97;3.00;;;7.10;99.90;;;;;;6309497;22;20454;-86
2023/12/21 00:14:15;;;;;;;3.63;2.80;;;7.10;99.90;;;;;;6307957;22;20161;-85
2023/12/21 00:16:42;;;;;;;3.30;2.73;;;7.10;99.90;;;;;;6309123;22;20164;-85
2023/12/21 00:19:08;;;;;;;3.37;2.70;;;7.20;99.90;;;;;;6307972;22;20234;-84
2023/12/21 00:21:33;;;;;;;2.87;2.57;;;7.20;99.90;;;;;;6307975;22;20191;-84
2023/12/21 00:23:59;;;;;;;3.03;2.40;;;7.20;99.90;;;;;;6309420;22;20148;-85
2023/12/21 00:26:25;;;;;;;2.67;2.10;;;7.20;99.90;;;;;;6307622;22;20222;-84
2023/12/21 00:28:51;;;;;;;3.33;2.20;;;7.20;99.90;;;;;;6308037;22;20156;-83
2023/12/21 00:31:17;;;;;;;2.23;1.97;;;7.30;99.90;;;;;;6307924;22;20156;-83
2023/12/21 00:33:43;;;;;;;2.10;1.90;;;7.30;99.90;;;;;;6309211;22;20201;-83
2023/12/21 00:36:17;;;;;;;2.50;2.10;;;7.30;99.90;;;;;;6260915;22;20199;-94
2023/12/21 00:38:43;;;;;;;3.73;1.93;;;7.30;99.90;;;;;;6307307;22;20166;-93
2023/12/21 00:41:16;;;;;;;3.10;1.73;;;7.40;99.90;;;;;;6307715;22;20458;-92
2023/12/21 00:43:42;;;;;;;3.33;1.87;;;7.40;99.90;;;;;;6306994;22;20217;-95
2023/12/21 00:46:15;;;;;;;1.60;1.50;;;7.40;99.90;;;;;;6307561;22;20172;-94
2023/12/21 00:48:41;;;;;;;2.30;1.60;;;7.40;99.90;;;;;;6307646;22;20235;-92
2023/12/21 00:51:19;;;;;;;1.60;1.50;;;7.40;99.90;;;;;;6307782;22;20156;-92
2023/12/21 00:53:45;;;;;;;1.50;1.40;;;7.50;99.90;;;;;;6307886;22;20235;-93
2023/12/21 00:56:42;;;;;;;1.48;1.38;;;7.50;99.90;;;;;;6307159;22;20172;-95
2023/12/21 00:59:09;;;;;;;2.63;1.30;;;7.40;99.90;;;;;;6307150;22;20248;-92
2023/12/21 01:01:50;;;;;;;1.40;1.30;;;7.50;99.90;;;;;;6307218;22;20187;-94
2023/12/21 01:04:30;;;;;;;1.90;0.90;;;7.50;99.90;;;;;;6307062;22;20156;-95
2023/12/21 01:06:58;;;;;;;1.00;0.90;;;7.60;99.90;;;;;;6306762;22;20172;-92
2023/12/21 01:09:33;;;;;;;0.97;0.90;;;7.60;99.90;;;;;;6281219;22;20601;-92
2023/12/21 01:12:23;;;;;;;1.40;1.03;;;7.60;99.90;;;;;;6306955;22;20162;-93
2023/12/21 01:14:49;;;;;;;1.80;1.00;;;7.50;99.90;;;;;;6307153;22;20549;-95
2023/12/21 01:17:15;;;;;;;1.10;0.93;;;7.60;99.90;;;;;;6307943;22;20183;-92
2023/12/21 01:19:41;;;;;;;1.00;0.90;;;7.60;99.90;;;;;;6309076;22;20179;-93
2023/12/21 01:22:12;;;;;;;2.25;1.05;;;7.60;99.90;;;;;;6308602;22;20793;-92
2023/12/21 01:24:43;;;;;;;1.55;0.95;;;7.60;99.90;;;;;;6308797;22;20179;-92
2023/12/21 01:27:08;;;;;;;0.80;0.80;;;7.60;99.90;;;;;;6308826;22;20481;-95
2023/12/21 01:29:34;;;;;;;1.00;0.80;;;7.60;99.90;;;;;;6310570;22;20164;-94
2023/12/21 01:32:00;;;;;;;1.13;0.90;;;7.60;99.90;;;;;;6308126;22;20160;-92
2023/12/21 01:34:26;;;;;;;1.30;0.90;;;7.60;99.90;;;;;;6308413;22;20198;-92
2023/12/21 01:36:52;;;;;;;0.90;0.80;;;7.60;99.90;;;;;;6305426;22;20260;-92
2023/12/21 01:39:21;;;;;;;2.10;0.97;;;7.60;99.90;;;;;;6308802;22;20145;-93
2023/12/21 01:41:55;;;;;;;0.60;0.60;;;7.60;99.90;;;;;;6308860;22;20485;-93
2023/12/21 01:44:21;;;;;;;0.90;0.80;;;7.60;99.90;;;;;;6308761;22;20209;-92
2023/12/21 01:47:05;;;;;;;2.13;0.90;;;7.60;99.90;;;;;;6310383;22;20622;-94
2023/12/21 01:49:32;;;;;;;1.27;0.93;;;7.60;99.90;;;;;;6308784;22;20148;-92
2023/12/21 01:52:00;;;;;;;0.90;0.77;;;7.60;99.90;;;;;;6308833;22;20159;-94
2023/12/21 01:54:37;;;;;;;0.83;0.80;;;7.60;99.90;;;;;;6308542;22;20245;-94
2023/12/21 01:57:08;;;;;;;1.53;0.87;;;7.60;99.90;;;;;;6308480;22;20183;-94
2023/12/21 01:59:36;;;;;;;0.83;0.80;;;7.50;99.90;;;;;;6308524;22;20152;-94
2023/12/21 02:02:05;;;;;;;0.63;0.63;;;7.60;99.90;;;;;;6308955;22;20148;-92
2023/12/21 02:05:13;;;;;;;0.70;0.70;;;7.60;99.90;;;;;;6308660;22;20152;-91
2023/12/21 02:07:40;;;;;;;0.80;0.80;;;7.50;99.90;;;;;;6308021;22;20224;-94
2023/12/21 02:10:06;;;;;;;4.13;0.90;;;7.50;99.90;;;;;;6308589;22;20156;-93
2023/12/21 02:12:32;;;;;;;0.80;0.80;;;7.60;99.90;;;;;;6308181;22;20235;-93
2023/12/21 02:14:58;;;;;;;3.13;0.77;;;7.50;99.90;;;;;;6308473;22;20600;-93
2023/12/21 02:17:46;;;;;;;1.20;0.87;;;7.60;99.90;;;;;;6308219;22;20214;-94
2023/12/21 02:20:13;;;;;;;0.77;0.77;;;7.60;99.90;;;;;;6308354;22;20151;-94
2023/12/21 02:23:03;;;;;;;1.67;1.10;;;7.60;99.90;;;;;;6308962;22;20562;-92
2023/12/21 02:25:40;;;;;;;0.80;0.80;;;7.60;99.90;;;;;;6308207;22;20240;-92
2023/12/21 02:28:38;;;;;;;1.00;0.90;;;7.60;99.90;;;;;;6308582;22;20148;-93
2023/12/21 02:31:07;;;;;;;1.67;0.83;;;7.60;99.90;;;;;;6307956;22;20155;-93
2023/12/21 02:33:33;;;;;;;1.00;0.90;;;7.60;99.90;;;;;;6307869;22;20148;-93
2023/12/21 02:35:59;;;;;;;1.00;0.90;;;7.60;99.90;;;;;;6307722;22;20186;-92
2023/12/21 02:38:26;;;;;;;0.80;0.80;;;7.60;99.90;;;;;;6282645;22;20191;-94
2023/12/21 02:40:54;;;;;;;0.90;0.90;;;7.60;99.90;;;;;;6282107;22;20156;-92
2023/12/21 02:43:26;;;;;;;0.80;0.80;;;7.60;99.90;;;;;;6282110;22;20148;-92
2023/12/21 02:45:54;;;;;;;1.00;0.90;;;7.60;99.90;;;;;;6282187;22;20172;-92
2023/12/21 02:48:30;;;;;;;1.60;1.10;;;7.70;99.90;;;;;;6282343;22;20195;-94
2023/12/21 02:51:01;;;;;;;1.03;0.93;;;7.60;99.90;;;;;;6281806;22;20156;-93
2023/12/21 02:53:29;;;;;;;2.73;1.03;;;7.60;99.90;;;;;;6282036;22;20188;-93
2023/12/21 02:56:13;;;;;;;1.10;1.00;;;7.60;99.90;;;;;;6281827;22;20229;-94
2023/12/21 02:58:40;;;;;;;1.03;0.93;;;7.60;99.90;;;;;;6281648;22;20188;-94
2023/12/21 03:01:06;;;;;;;1.17;1.07;;;7.60;99.90;;;;;;6281290;22;20152;-93
2023/12/21 03:03:32;;;;;;;1.60;1.10;;;7.60;99.90;;;;;;6281822;22;20151;-93
2023/12/21 03:05:57;;;;;;;1.90;1.00;;;7.60;99.90;;;;;;6281682;22;20175;-92
2023/12/21 03:08:43;;;;;;;1.63;0.90;;;7.60;99.90;;;;;;6282156;22;20159;-93
2023/12/21 03:11:10;;;;;;;1.00;0.90;;;7.60;99.90;;;;;;6281822;22;20605;-93
2023/12/21 03:13:36;;;;;;;1.10;1.00;;;7.60;99.90;;;;;;6281945;22;20209;-92
2023/12/21 03:16:09;;;;;;;1.40;1.30;;;7.60;99.90;;;;;;6281656;22;20179;-93
2023/12/21 03:18:37;;;;;;;1.00;0.90;;;7.60;99.90;;;;;;6281657;22;20618;-93
2023/12/21 03:21:03;;;;;;;1.07;0.97;;;7.70;99.90;;;;;;6308998;22;20129;-93
2023/12/21 03:23:30;;;;;;;1.33;1.10;;;7.60;99.90;;;;;;6281964;22;20163;-92
2023/12/21 03:25:57;;;;;;;1.80;1.00;;;7.60;99.90;;;;;;6281616;22;20172;-93
2023/12/21 03:28:25;;;;;;;1.10;0.90;;;7.60;99.90;;;;;;6278479;22;20614;-93
2023/12/21 03:30:51;;;;;;;1.30;1.20;;;7.60;99.90;;;;;;6281582;22;20167;-92
2023/12/21 03:33:19;;;;;;;2.45;1.05;;;7.60;99.90;;;;;;6281452;22;20156;-93
2023/12/21 03:35:44;;;;;;;1.47;1.17;;;7.60;99.90;;;;;;6281453;22;20183;-92
2023/12/21 03:38:40;;;;;;;2.30;1.13;;;7.60;99.90;;;;;;6275912;22;20189;-92
2023/12/21 03:41:09;;;;;;;1.20;1.10;;;7.70;99.90;;;;;;6276673;22;20148;-92
2023/12/21 03:43:39;;;;;;;1.67;1.10;;;7.70;99.90;;;;;;6276398;22;20149;-92
2023/12/21 03:46:09;;;;;;;2.10;1.30;;;7.70;99.90;;;;;;6276994;22;20180;-91
2023/12/21 03:48:44;;;;;;;2.30;1.37;;;7.70;99.90;;;;;;6276308;22;20483;-92
2023/12/21 03:51:17;;;;;;;1.27;1.17;;;7.80;99.90;;;;;;6276441;22;20362;-93
2023/12/21 03:53:48;;;;;;;1.57;1.10;;;7.70;99.90;;;;;;6276771;22;20153;-92
2023/12/21 03:56:24;;;;;;;1.30;1.20;;;7.70;99.90;;;;;;6276515;22;20204;-93
2023/12/21 03:59:10;;;;;;;3.33;1.20;;;7.70;99.90;;;;;;6276396;22;20219;-93
2023/12/21 04:01:45;;;;;;;1.77;0.83;;;7.70;99.90;;;;;;6276134;22;20156;-92
2023/12/21 04:04:11;;;;;;;1.50;1.40;;;7.70;99.90;;;;;;6276761;22;20148;-92
2023/12/21 04:06:46;;;;;;;1.37;1.27;;;7.70;99.90;;;;;;6276500;22;20179;-93
2023/12/21 04:09:14;;;;;;;1.53;1.33;;;7.70;99.90;;;;;;6276383;22;20159;-93
2023/12/21 04:11:42;;;;;;;1.40;1.30;;;7.80;99.90;;;;;;6276558;22;20153;-93
2023/12/21 04:14:09;;;;;;;1.83;1.30;;;7.70;99.90;;;;;;6276584;22;20594;-94
2023/12/21 04:16:58;;;;;;;1.50;1.40;;;7.80;99.90;;;;;;6276038;22;20632;-93
2023/12/21 04:19:25;;;;;;;1.80;1.67;;;7.80;99.90;;;;;;6276327;22;20153;-93
2023/12/21 04:21:51;;;;;;;1.47;1.37;;;7.80;99.90;;;;;;6276389;22;20180;-93
2023/12/21 04:24:19;;;;;;;1.40;1.30;;;7.80;99.90;;;;;;6276285;22;20892;-92
2023/12/21 04:26:55;;;;;;;2.60;1.40;;;7.80;99.90;;;;;;6276670;22;20698;-93
2023/12/21 04:29:28;;;;;;;1.53;1.43;;;7.80;99.90;;;;;;6276318;22;20160;-91
2023/12/21 04:32:06;;;;;;;1.40;1.30;;;7.80;99.90;;;;;;6276226;22;20164;-93
2023/12/21 04:34:51;;;;;;;2.10;1.40;;;7.80;99.90;;;;;;6276320;22;20149;-93
2023/12/21 04:37:17;;;;;;;2.03;1.50;;;7.80;99.90;;;;;;6293443;22;20199;-91
2023/12/21 04:40:07;;;;;;;1.60;1.50;;;7.80;99.90;;;;;;6307143;22;20593;-91
2023/12/21 04:42:37;;;;;;;3.80;1.90;;;7.80;99.90;;;;;;6307297;22;20179;-93
2023/12/21 04:45:04;;;;;;;2.67;1.67;;;7.80;99.90;;;;;;6307196;22;20582;-93
2023/12/21 04:47:55;;;;;;;2.00;1.77;;;7.90;99.90;;;;;;6307054;22;20256;-92
2023/12/21 04:50:52;;;;;;;2.15;1.80;;;7.90;99.90;;;;;;6307991;22;20152;-93
2023/12/21 04:53:23;;;;;;;2.20;2.00;;;7.90;99.90;;;;;;6309153;22;20147;-93
2023/12/21 04:55:51;;;;;;;2.73;2.43;;;7.90;99.90;;;;;;6308891;22;20180;-92
2023/12/21 04:58:29;;;;;;;2.77;2.47;;;7.90;99.90;;;;;;6308737;22;20190;-94
2023/12/21 05:01:04;;;;;;;2.90;2.40;;;7.90;99.90;;;;;;6309631;22;20148;-93
2023/12/21 05:03:34;;;;;;;2.60;2.30;;;7.90;99.90;;;;;;6309133;22;20573;-93
2023/12/21 05:06:01;;;;;;;3.07;2.40;;;7.90;99.90;;;;;;6309693;22;20207;-94
2023/12/21 05:08:38;;;;;;;4.18;2.63;;;7.90;99.90;;;;;;6308990;22;20156;-94
2023/12/21 05:11:11;;;;;;;2.53;2.33;;;7.90;99.90;;;;;;6309685;22;20163;-93
2023/12/21 05:13:39;;;;;;;2.67;1.97;;;8.00;99.90;;;;;;6308991;22;20156;-92
2023/12/21 05:16:13;;;;;;;4.80;2.10;;;7.90;99.90;;;;;;6308679;22;20171;-93
2023/12/21 05:18:39;;;;;;;3.20;1.97;;;7.90;99.90;;;;;;6308844;22;20191;-93
2023/12/21 05:21:08;;;;;;;3.30;2.10;;;8.00;99.90;;;;;;6308715;22;20144;-93
2023/12/21 05:23:34;;;;;;;2.57;2.10;;;8.00;99.90;;;;;;6308663;22;20148;-93
2023/12/21 05:26:12;;;;;;;1.77;1.40;;;8.00;99.90;;;;;;6308745;22;20656;-92
2023/12/21 05:28:41;;;;;;;2.13;1.93;;;8.00;99.90;;;;;;6309106;22;20197;-93
2023/12/21 05:31:37;;;;;;;2.53;2.20;;;8.00;99.90;;;;;;6308848;22;20227;-93
2023/12/21 05:34:04;;;;;;;5.47;2.00;;;8.00;99.90;;;;;;6309438;22;20163;-93
2023/12/21 05:36:59;;;;;;;3.10;2.00;;;8.00;99.90;;;;;;6307629;22;20282;-93
2023/12/21 05:39:27;;;;;;;2.17;1.88;;;8.00;99.90;;;;;;6308917;22;20147;-93
2023/12/21 05:41:53;;;;;;;2.97;2.10;;;8.00;99.90;;;;;;6308297;22;20230;-92
2023/12/21 05:44:23;;;;;;;2.38;2.10;;;8.00;99.90;;;;;;6309218;22;20231;-93
2023/12/21 05:47:08;;;;;;;3.25;2.28;;;8.00;99.90;;;;;;6308549;22;20704;-93
2023/12/21 05:49:44;;;;;;;3.72;2.00;;;8.00;99.90;;;;;;6308463;22;20154;-93
2023/12/21 05:52:19;;;;;;;2.97;2.38;;;8.00;99.90;;;;;;6308694;22;20148;-94
2023/12/21 05:54:48;;;;;;;3.25;2.75;;;8.00;99.90;;;;;;6308381;22;20167;-93
2023/12/21 05:57:38;;;;;;;4.43;2.17;;;8.00;99.90;;;;;;6308923;22;20195;-94
2023/12/21 06:00:10;;;;;;;2.50;2.10;;;8.00;99.90;;;;;;6308547;22;20171;-94
2023/12/21 06:02:36;;;;;;;2.40;2.07;;;8.00;99.90;;;;;;6307795;22;20216;-92
2023/12/21 06:05:02;;;;;;;1.87;1.67;;;8.00;99.90;;;;;;6308278;22;20237;-91
2023/12/21 06:07:44;;;;;;;2.20;2.00;;;8.10;99.90;;;;;;6308144;22;20176;-93
2023/12/21 06:10:19;;;;;;;3.10;2.20;;;8.10;99.90;;;;;;6308468;22;20160;-92
2023/12/21 06:12:52;;;;;;;3.15;1.92;;;8.10;99.90;;;;;;6308437;22;20166;-93
2023/12/21 06:15:28;;;;;;;2.57;1.97;;;8.10;99.90;;;;;;6308207;22;20156;-92
2023/12/21 06:17:54;;;;;;;2.63;1.90;;;8.20;99.90;;;;;;6308131;22;20608;-94
2023/12/21 06:20:44;;;;;;;1.90;1.70;;;8.20;99.90;;;;;;6308341;22;20164;-93
2023/12/21 06:23:10;;;;;;;2.63;1.60;;;8.20;99.90;;;;;;6308071;22;20204;-92
2023/12/21 06:25:43;;;;;;;2.55;1.77;;;8.20;99.90;;;;;;6308150;22;20171;-93
2023/12/21 06:28:10;;;;;;;2.28;2.00;;;8.20;99.90;;;;;;6308531;22;20152;-94
2023/12/21 06:30:40;;;;;;;2.65;1.90;;;8.20;99.90;;;;;;6308095;22;20148;-93
2023/12/21 06:33:07;;;;;;;2.45;2.20;;;8.10;99.90;;;;;;6308065;22;20159;-93
2023/12/21 06:35:40;;;;;;;3.03;2.40;;;8.20;99.90;;;;;;6308120;22;20148;-93
2023/12/21 06:38:58;;;;;;;2.70;2.37;;;8.10;99.90;;;;;;6307877;22;20196;-92
2023/12/21 06:41:31;;;;;;;4.20;2.78;;;8.10;99.90;;;;;;6307846;22;20144;-92
2023/12/21 06:44:03;;;;;;;3.28;2.63;;;8.10;99.90;;;;;;6308060;22;20585;-91
2023/12/21 06:46:29;;;;;;;5.43;3.15;;;8.20;99.90;;;;;;6307799;22;20723;-94
2023/12/21 06:49:11;;;;;;;3.45;3.15;;;8.20;99.90;;;;;;6307966;22;20155;-92
2023/12/21 06:51:45;;;;;;;5.35;3.63;;;8.20;99.90;;;;;;6308042;22;20463;-93
2023/12/21 06:54:22;;;;;;;4.05;3.15;;;8.20;99.90;;;;;;6307997;22;20151;-92
2023/12/21 06:56:56;;;;;;;3.85;3.45;;;8.20;99.90;;;;;;6307650;22;20233;-93
2023/12/21 06:59:22;;;;;;;3.58;2.90;;;8.20;99.90;;;;;;6307897;22;20178;-93
2023/12/21 07:02:02;;;;;;;3.30;3.00;;;8.20;99.90;;;;;;6307686;22;20582;-93
2023/12/21 07:04:34;;;;;;;4.05;2.78;;;8.20;99.90;;;;;;6307549;22;20162;-92
2023/12/21 07:07:10;;;;;;;3.77;2.53;;;8.20;99.90;;;;;;6307512;22;20203;-94
2023/12/21 07:09:49;;;;;;;4.95;2.53;;;8.30;99.90;;;;;;6307716;22;20217;-94
2023/12/21 07:12:20;;;;;;;2.47;2.27;;;8.30;99.90;;;;;;6307813;22;20163;-92
2023/12/21 07:14:54;;;;;;;2.60;2.40;;;8.30;99.90;;;;;;6308022;22;20156;-93
2023/12/21 07:17:20;;;;;;;3.17;2.50;;;8.30;99.90;;;;;;6307755;22;20221;-94
2023/12/21 07:19:46;;;;;;;2.30;1.90;;;8.30;99.90;;;;;;6308162;22;20147;-94
2023/12/21 07:22:12;;;;;;;2.17;1.98;;;8.30;99.90;;;;;;6309040;22;20170;-95
2023/12/21 07:24:39;;;;;;;1.80;1.60;;;8.30;99.90;;;;;;6307698;22;20227;-93
2023/12/21 07:27:09;;;;;;;2.30;2.10;;;8.30;99.90;;;;;;6307648;22;20769;-92
2023/12/21 07:29:49;;;;;;;2.10;1.90;;;8.20;99.90;;;;;;6307736;22;20159;-93
2023/12/21 07:32:15;;;;;;;1.90;1.70;;;8.20;99.90;;;;;;6307755;22;20205;-93
2023/12/21 07:34:45;;;;;;;1.90;1.70;;;8.30;99.90;;;;;;6307369;22;20497;-93
2023/12/21 07:37:16;;;;;;;1.53;1.43;;;8.30;99.90;;;;;;6306905;22;20203;-93
2023/12/21 07:39:42;;;;;;;2.80;2.17;;;8.20;99.90;;;;;;6308362;22;20679;-92
2023/12/21 07:42:08;;;;;;;1.80;1.50;;;8.20;99.90;;;;;;6308160;22;20148;-95
2023/12/21 07:44:40;;;;;;;2.83;1.50;;;8.30;99.90;;;;;;6308236;22;20148;-94
2023/12/21 07:47:10;;;;;;;1.70;1.60;;;8.30;99.90;;;;;;6307492;22;20180;-94
2023/12/21 07:49:40;;;;;;;1.80;1.33;;;8.30;99.90;;;;;;6311725;22;20203;-93
2023/12/21 07:52:10;;;;;;;1.50;1.40;;;8.30;99.90;;;;;;6311519;22;20152;-93
2023/12/21 07:54:37;;;;;;;1.40;1.30;;;8.30;99.90;;;;;;6314715;22;20478;-93
2023/12/21 07:57:05;;;;;;;1.13;1.02;;;8.30;99.90;;;;;;6313036;22;20184;-94
2023/12/21 07:59:34;;;;;;;1.20;1.10;;;8.40;99.90;;;;;;6314454;22;20160;-92
2023/12/21 08:02:00;;;;;;;1.08;0.98;;;8.30;99.90;;;;;;6314576;22;20177;-93
2023/12/21 08:04:28;;;;;;;1.27;0.87;;;8.30;99.90;;;;;;6314284;22;20151;-94
2023/12/21 08:06:54;;;;;;;0.93;0.88;;;8.40;99.90;;;;;;6313174;22;20229;-92
2023/12/21 08:09:21;;;;;;;1.02;0.80;;;8.40;99.90;;;;;;6312538;22;20216;-93
2023/12/21 08:11:47;;;;;;;0.77;0.77;;;8.40;99.90;;;;;;6312020;22;20187;-93
2023/12/21 08:14:20;;;;;;;0.80;0.80;;;8.40;99.90;;;;;;6312491;22;20570;-93
2023/12/21 08:16:46;;;;;;;0.57;0.57;;;8.40;99.90;;;;;;6311348;22;20182;-93
2023/12/21 08:19:12;;;;;;;1.30;0.53;;;8.40;99.90;;;;;;6313371;22;20326;-94
2023/12/21 08:21:38;;;;;;;1.40;0.68;;;8.40;99.90;;;;;;6311681;22;20152;-93
2023/12/21 08:24:08;;;;;;;0.93;0.60;;;8.40;99.90;;;;;;6313070;22;20156;-95
2023/12/21 08:26:35;;;;;;;2.85;0.60;;;8.40;99.90;;;;;;6315964;22;20172;-93
2023/12/21 08:29:09;;;;;;;1.35;0.80;;;8.40;99.90;;;;;;6316062;22;20557;-94
2023/12/21 08:31:35;;;;;;;1.43;0.50;;;8.40;99.90;;;;;;6316050;22;20182;-95
2023/12/21 08:34:12;;;;;;;1.15;0.60;;;8.50;99.90;;;;;;6314663;22;20167;-95
2023/12/21 08:36:38;;;;;;;0.40;0.40;;;8.50;99.90;;;;;;6312225;22;20276;-92
2023/12/21 08:39:12;;;;;;;0.50;0.50;;;8.50;99.90;;;;;;6309487;22;20531;-93
2023/12/21 08:41:38;;;;;;;0.57;0.57;;;8.50;99.90;;;;;;6309434;22;20151;-93
2023/12/21 08:44:46;;;;;;;0.82;0.40;;;8.50;99.90;;;;;;6309454;22;20183;-92
2023/12/21 08:47:12;;;;;;;0.60;0.50;;;8.60;99.90;;;;;;6311429;22;20175;-93
2023/12/21 08:49:41;;;;;;;0.82;0.50;;;8.50;99.90;;;;;;6313128;22;20160;-94
2023/12/21 08:52:12;;;;;;;1.20;0.52;;;8.50;99.90;;;;;;6307845;22;20160;-91
2023/12/21 08:54:46;;;;;;;2.97;0.52;;;8.50;99.90;;;;;;6309433;22;20156;-91
2023/12/21 08:57:12;;;;;;;0.52;0.52;;;8.50;99.90;;;;;;6308595;22;20211;-91
2023/12/21 08:59:57;;;;;;;0.77;0.40;;;8.50;99.90;;;;;;6309458;22;20152;-91
2023/12/21 09:02:25;;;;;;;0.77;0.50;;;8.50;99.90;;;;;;6308407;22;20190;-90
2023/12/21 09:05:20;;;;;;;0.70;0.60;;;8.50;99.90;;;;;;6308167;22;20593;-93
2023/12/21 09:07:55;;;;;;;1.92;0.80;;;8.50;99.90;;;;;;6308284;22;20582;-91
2023/12/21 09:10:21;;;;;;;0.80;0.60;;;8.50;99.90;;;;;;6308894;22;20159;-91
2023/12/21 09:12:54;;;;;;;0.50;0.40;;;8.50;99.90;;;;;;6308539;22;20159;-91
2023/12/21 09:15:37;;;;;;;0.70;0.60;;;8.50;99.90;;;;;;6308400;22;20162;-91
2023/12/21 09:18:10;;;;;;;0.55;0.50;;;8.50;99.90;;;;;;6308709;22;20201;-94
2023/12/21 09:20:36;;;;;;;1.30;0.60;;;8.50;99.90;;;;;;6309232;22;20156;-93
2023/12/21 09:23:19;;;;;;;0.45;0.43;;;8.50;99.90;;;;;;6308209;22;20202;-91
2023/12/21 09:25:45;;;;;;;2.03;0.70;;;8.50;99.90;;;;;;6308393;22;20179;-90
2023/12/21 09:28:21;;;;;;;1.23;0.70;;;8.50;99.90;;;;;;6308717;22;20160;-91
2023/12/21 09:30:59;;;;;;;1.38;0.85;;;8.50;99.90;;;;;;6308309;22;20155;-90
2023/12/21 09:33:38;;;;;;;2.03;0.60;;;8.50;99.90;;;;;;6308428;22;20155;-91
2023/12/21 09:36:05;;;;;;;3.28;0.70;;;8.50;99.90;;;;;;6307486;22;20282;-91
2023/12/21 09:38:33;;;;;;;0.60;0.60;;;8.50;99.90;;;;;;6282110;22;20187;-92
2023/12/21 09:41:01;;;;;;;1.15;0.75;;;8.50;99.90;;;;;;6282592;22;20156;-91
2023/12/21 09:43:28;;;;;;;0.60;0.60;;;8.50;99.90;;;;;;6281527;22;20529;-91
2023/12/21 09:45:56;;;;;;;0.70;0.60;;;8.60;99.90;;;;;;6282143;22;20176;-91
2023/12/21 09:48:28;;;;;;;0.55;0.55;;;8.60;99.90;;;;;;6282349;22;20155;-92
2023/12/21 09:51:04;;;;;;;0.70;0.60;;;8.60;99.90;;;;;;6282229;22;20147;-89
2023/12/21 09:53:35;;;;;;;2.45;0.85;;;8.60;99.90;;;;;;6282231;22;20190;-91
2023/12/21 09:56:02;;;;;;;1.83;0.80;;;8.60;99.90;;;;;;6282098;22;20244;-91
2023/12/21 09:58:31;;;;;;;3.08;0.80;;;8.60;99.90;;;;;;6281662;22;20180;-92
2023/12/21 10:00:57;;;;;;;1.42;0.77;;;8.60;99.90;;;;;;6280563;22;20155;-92
2023/12/21 10:03:24;;;;;;;0.93;0.55;;;8.60;99.90;;;;;;6280826;22;20149;-92
2023/12/21 10:05:54;;;;;;;0.82;0.70;;;8.60;99.90;;;;;;6281591;22;20172;-90
2023/12/21 10:08:20;;;;;;;0.60;0.60;;;8.70;99.90;;;;;;6281976;22;20187;-89
2023/12/21 10:10:52;;;;;;;0.90;0.60;;;8.70;99.90;;;;;;6282158;22;20698;-92
2023/12/21 10:13:22;;;;;;;0.55;0.50;;;8.70;99.90;;;;;;6282883;22;20156;-91
2023/12/21 10:16:03;;;;;;;0.93;0.50;;;8.80;99.90;;;;;;6282589;22;20494;-92
2023/12/21 10:18:31;;;;;;;1.55;0.65;;;8.80;99.90;;;;;;6283596;22;20259;-94
2023/12/21 10:21:10;;;;;;;2.83;0.60;;;8.80;99.90;;;;;;6285749;22;20193;-94
2023/12/21 10:23:45;;;;;;;0.95;0.60;;;8.90;99.90;;;;;;6284334;22;20586;-95
2023/12/21 10:27:59;;;;;;;;;;;;;;;;;;;;;
2023/12/21 10:29:55;;;;;;;0.85;0.47;;;8.90;99.90;;;;;;6271099;22;20281;-95
2023/12/21 10:32:24;;;;;;;1.50;0.60;;;8.90;99.90;;;;;;6287038;22;20155;-96
2023/12/21 10:34:54;;;;;;;0.60;0.50;;;8.90;99.90;;;;;;6285746;22;20148;-95
2023/12/21 10:37:26;;;;;;;0.88;0.57;;;8.90;99.90;;;;;;6296349;22;20196;-94
2023/12/21 10:39:54;;;;;;;1.88;0.50;;;8.90;99.90;;;;;;6309485;22;20159;-95
2023/12/21 10:42:23;;;;;;;0.70;0.60;;;9.00;99.90;;;;;;6309909;22;20152;-95
2023/12/21 10:44:57;;;;;;;0.52;0.50;;;8.90;99.90;;;;;;6312513;22;20148;-95
2023/12/21 10:47:26;;;;;;;0.80;0.47;;;8.90;99.90;;;;;;6310438;22;20628;-93
2023/12/21 10:49:53;;;;;;;0.52;0.50;;;8.90;99.90;;;;;;6310195;22;20152;-94
2023/12/21 10:52:25;;;;;;;0.60;0.60;;;8.90;99.90;;;;;;6311305;22;20152;-94
2023/12/21 10:55:00;;;;;;;0.45;0.40;;;8.90;99.90;;;;;;6311613;22;20156;-94
2023/12/21 10:57:44;;;;;;;1.02;0.65;;;8.90;99.90;;;;;;6311074;22;20184;-94
2023/12/21 11:00:22;;;;;;;3.85;0.63;;;9.00;99.90;;;;;;6310462;22;20152;-94
2023/12/21 11:02:49;;;;;;;0.50;0.50;;;9.00;99.90;;;;;;6312158;22;20163;-95
2023/12/21 11:05:23;;;;;;;0.68;0.57;;;8.90;99.90;;;;;;6309628;22;20148;-94
2023/12/21 11:08:00;;;;;;;1.20;0.50;;;8.90;99.90;;;;;;6310015;22;20167;-96
2023/12/21 11:10:28;;;;;;;0.43;0.43;;;9.00;99.90;;;;;;6310947;22;20156;-94
2023/12/21 11:13:12;;;;;;;2.53;0.70;;;9.00;99.90;;;;;;6309865;22;20156;-93
2023/12/21 11:15:38;;;;;;;2.30;0.50;;;9.00;99.90;;;;;;6310647;22;20186;-95
2023/12/21 11:18:11;;;;;;;1.25;0.60;;;9.00;99.90;;;;;;6311518;22;20179;-95
2023/12/21 11:20:51;;;;;;;0.60;0.60;;;9.00;99.90;;;;;;6309738;22;20171;-94
2023/12/21 11:23:18;;;;;;;0.50;0.50;;;9.00;99.90;;;;;;6311122;22;20175;-94
2023/12/21 11:26:07;;;;;;;0.60;0.50;;;9.00;99.90;;;;;;6311349;22;20176;-95
2023/12/21 11:28:35;;;;;;;0.75;0.60;;;9.00;99.90;;;;;;6311049;22;20152;-96
2023/12/21 11:31:23;;;;;;;1.52;0.50;;;9.00;99.90;;;;;;6308261;22;20156;-94
2023/12/21 11:33:52;;;;;;;1.20;0.50;;;8.90;99.90;;;;;;6308699;22;20185;-94
2023/12/21 11:36:25;;;;;;;0.68;0.50;;;9.00;99.90;;;;;;6308856;22;20219;-94
2023/12/21 11:39:21;;;;;;;0.70;0.50;;;9.00;99.90;;;;;;6283037;22;20183;-94
2023/12/21 11:42:03;;;;;;;0.40;0.40;;;8.90;99.90;;;;;;6284037;22;20475;-94
2023/12/21 11:44:36;;;;;;;1.95;0.60;;;9.00;99.90;;;;;;6282607;22;20155;-95
2023/12/21 11:47:07;;;;;;;0.65;0.40;;;9.00;99.90;;;;;;6282135;22;20495;-95
2023/12/21 11:50:02;;;;;;;0.68;0.63;;;8.90;99.90;;;;;;6282276;22;20151;-96
2023/12/21 11:52:29;;;;;;;0.40;0.40;;;9.00;99.90;;;;;;6282070;22;20477;-95
2023/12/21 11:54:59;;;;;;;0.57;0.50;;;9.00;99.90;;;;;;6281871;22;20152;-94
2023/12/21 11:57:39;;;;;;;0.95;0.65;;;9.00;99.90;;;;;;6282130;22;20464;-92
2023/12/21 12:00:18;;;;;;;0.70;0.52;;;9.00;99.90;;;;;;6282658;22;20158;-96
2023/12/21 12:03:02;;;;;;;0.98;0.40;;;9.10;99.90;;;;;;6284537;22;20278;-94
2023/12/21 12:05:34;;;;;;;0.50;0.50;;;9.00;99.90;;;;;;6283982;22;20151;-95
2023/12/21 12:08:02;;;;;;;0.57;0.50;;;9.00;99.90;;;;;;6284634;22;20481;-95
2023/12/21 12:10:42;;;;;;;0.60;0.50;;;9.00;99.90;;;;;;6283193;22;20151;-95
2023/12/21 12:13:18;;;;;;;0.60;0.30;;;9.00;99.90;;;;;;6283677;22;20156;-95
2023/12/21 12:15:52;;;;;;;0.85;0.50;;;9.10;99.90;;;;;;6283534;22;20228;-94
2023/12/21 12:18:22;;;;;;;3.13;0.40;;;9.10;99.90;;;;;;6285138;22;20184;-95
2023/12/21 12:21:00;;;;;;;0.52;0.40;;;9.20;99.90;;;;;;6284319;22;20148;-94
2023/12/21 12:23:36;;;;;;;0.30;0.30;;;9.20;99.90;;;;;;6281379;22;20273;-96
2023/12/21 12:26:11;;;;;;;0.30;0.30;;;9.20;99.90;;;;;;6309719;22;20304;-95
2023/12/21 12:29:17;;;;;;;0.55;0.38;;;9.20;99.90;;;;;;6281720;22;20148;-95
2023/12/21 12:31:45;;;;;;;0.85;0.30;;;9.30;99.90;;;;;;6285118;22;20182;-94
2023/12/21 12:34:11;;;;;;;0.35;0.20;;;9.30;99.90;;;;;;6291914;22;20136;-94
2023/12/21 12:36:51;;;;;;;0.50;0.20;;;9.30;99.90;;;;;;6292069;22;20264;-96
2023/12/21 12:39:17;;;;;;;0.45;0.30;;;9.30;99.90;;;;;;6315594;22;20573;-96
2023/12/21 12:42:05;;;;;;;0.95;0.30;;;9.30;99.90;;;;;;6315162;22;20240;-95
2023/12/21 12:44:41;;;;;;;0.20;0.20;;;9.30;99.90;;;;;;6315946;22;20160;-94
2023/12/21 12:47:12;;;;;;;0.20;0.20;;;9.30;99.90;;;;;;6314751;22;20291;-93
2023/12/21 12:49:41;;;;;;;0.55;0.28;;;9.30;99.90;;;;;;6310704;22;20163;-93
2023/12/21 12:52:16;;;;;;;0.65;0.40;;;9.30;99.90;;;;;;6308670;22;20156;-93
2023/12/21 12:54:42;;;;;;;3.80;0.20;;;9.40;99.90;;;;;;6309623;22;20160;-96
2023/12/21 12:57:12;;;;;;;0.45;0.30;;;9.40;99.90;;;;;;6311860;22;20179;-94
2023/12/21 12:59:40;;;;;;;0.82;0.50;;;9.40;99.90;;;;;;6307114;22;20152;-94
2023/12/21 13:02:07;;;;;;;0.75;0.32;;;9.40;99.90;;;;;;6308229;22;20156;-95
2023/12/21 13:04:38;;;;;;;1.00;0.40;;;9.40;99.90;;;;;;6312410;22;20158;-95
2023/12/21 13:07:10;;;;;;;0.60;0.40;;;9.40;99.90;;;;;;6312290;22;20176;-93
2023/12/21 13:09:44;;;;;;;1.67;0.60;;;9.40;99.90;;;;;;6307827;22;20152;-93
2023/12/21 13:12:15;;;;;;;1.75;0.50;;;9.40;99.90;;;;;;6308877;22;20158;-94
2023/12/21 13:14:53;;;;;;;2.08;0.70;;;9.40;99.90;;;;;;6309761;22;20159;-90
2023/12/21 13:17:29;;;;;;;2.85;0.52;;;9.40;99.90;;;;;;6308287;22;20500;-89
2023/12/21 13:19:57;;;;;;;1.05;0.55;;;9.40;99.90;;;;;;6308244;22;20159;-89
2023/12/21 13:22:24;;;;;;;0.80;0.30;;;9.30;99.90;;;;;;6308058;22;20159;-91
2023/12/21 13:25:12;;;;;;;1.20;0.28;;;9.30;99.90;;;;;;6308544;22;20152;-94
2023/12/21 13:27:38;;;;;;;1.23;0.38;;;9.30;99.90;;;;;;6308876;22;20636;-93